createdAt,value
2019-03-18T00:00:23.097Z,19.24
2019-03-18T00:01:23.076Z,19.23
2019-03-18T00:02:23.142Z,19.24
2019-03-18T00:03:23.153Z,19.24
2019-03-18T00:04:23.146Z,19.24
2019-03-18T00:05:23.139Z,19.22
2019-03-18T00:06:22.969Z,19.22
2019-03-18T00:07:23.178Z,19.22
2019-03-18T00:08:23.231Z,19.21
2019-03-18T00:09:23.285Z,19.21
2019-03-18T00:10:22.984Z,19.2
2019-03-18T00:11:23.196Z,19.2
2019-03-18T00:12:23.233Z,19.2
2019-03-18T00:13:23.016Z,19.2
2019-03-18T00:14:25.427Z,19.18
2019-03-18T00:15:23.085Z,19.18
2019-03-18T00:16:23.023Z,19.17
2019-03-18T00:17:23.112Z,19.17
2019-03-18T00:18:23.265Z,19.16
2019-03-18T00:19:23.070Z,19.15
2019-03-18T00:20:23.212Z,19.15
2019-03-18T00:21:23.518Z,19.14
2019-03-18T00:22:23.215Z,19.15
2019-03-18T00:23:23.137Z,19.14
2019-03-18T00:24:23.059Z,19.14
2019-03-18T00:25:23.127Z,19.13
2019-03-18T00:26:23.194Z,19.14
2019-03-18T00:27:23.319Z,19.12
2019-03-18T00:28:23.118Z,19.12
2019-03-18T00:29:23.193Z,19.12
2019-03-18T00:30:23.270Z,19.11
2019-03-18T00:31:23.326Z,19.1
2019-03-18T00:32:22.942Z,19.1
2019-03-18T00:33:23.315Z,19.1
2019-03-18T00:34:22.981Z,19.09
2019-03-18T00:35:22.997Z,19.09
2019-03-18T00:36:23.020Z,19.09
2019-03-18T00:37:23.046Z,19.08
2019-03-18T00:38:23.041Z,19.09
2019-03-18T00:39:22.981Z,19.08
2019-03-18T00:40:23.084Z,19.07
2019-03-18T00:41:23.086Z,19.06
2019-03-18T00:42:23.168Z,19.06
2019-03-18T00:43:23.230Z,19.05
2019-03-18T00:44:23.112Z,19.05
2019-03-18T00:45:23.077Z,19.05
2019-03-18T00:46:22.989Z,19.05
2019-03-18T00:47:23.138Z,19.04
2019-03-18T00:48:23.186Z,19.03
2019-03-18T00:49:23.153Z,19.03
2019-03-18T00:50:22.954Z,19.03
2019-03-18T00:51:23.212Z,19.03
2019-03-18T00:52:23.215Z,19.03
2019-03-18T00:53:22.956Z,19.02
2019-03-18T00:54:22.999Z,19.02
2019-03-18T00:55:23.018Z,19
2019-03-18T00:56:23.020Z,19.01
2019-03-18T00:57:23.116Z,19
2019-03-18T00:58:23.130Z,18.99
2019-03-18T00:59:23.075Z,18.99
2019-03-18T01:00:23.221Z,18.99
2019-03-18T01:01:23.045Z,18.99
2019-03-18T01:02:23.052Z,18.98
2019-03-18T01:03:23.148Z,18.98
2019-03-18T01:04:23.240Z,18.98
2019-03-18T01:05:23.008Z,18.97
2019-03-18T01:06:23.202Z,18.97
2019-03-18T01:07:23.194Z,18.97
2019-03-18T01:08:23.061Z,18.96
2019-03-18T01:09:23.183Z,18.95
2019-03-18T01:10:23.269Z,18.95
2019-03-18T01:11:23.249Z,18.94
2019-03-18T01:12:23.060Z,18.94
2019-03-18T01:13:23.201Z,18.93
2019-03-18T01:14:22.962Z,18.94
2019-03-18T01:15:29.003Z,18.94
2019-03-18T01:16:22.888Z,18.93
2019-03-18T01:17:23.092Z,18.92
2019-03-18T01:18:23.127Z,18.91
2019-03-18T01:19:23.023Z,18.91
2019-03-18T01:20:22.943Z,18.91
2019-03-18T01:21:23.160Z,18.9
2019-03-18T01:22:23.066Z,18.9
2019-03-18T01:23:23.124Z,18.9
2019-03-18T01:24:23.125Z,18.9
2019-03-18T01:25:23.145Z,18.9
2019-03-18T01:26:23.131Z,18.89
2019-03-18T01:27:25.839Z,18.89
2019-03-18T01:28:23.220Z,18.88
2019-03-18T01:29:23.248Z,18.88
2019-03-18T01:30:23.199Z,18.87
2019-03-18T01:31:23.066Z,18.88
2019-03-18T01:32:22.979Z,18.86
2019-03-18T01:33:23.126Z,18.86
2019-03-18T01:34:23.018Z,18.85
2019-03-18T01:35:23.001Z,18.85
2019-03-18T01:36:23.293Z,18.85
2019-03-18T01:37:23.120Z,18.84
2019-03-18T01:38:23.183Z,18.84
2019-03-18T01:39:23.040Z,18.85
2019-03-18T01:40:23.984Z,18.84
2019-03-18T01:41:23.042Z,18.84
2019-03-18T01:42:23.124Z,18.84
2019-03-18T01:43:23.184Z,18.83
2019-03-18T01:44:23.043Z,18.82
2019-03-18T01:45:23.181Z,18.82
2019-03-18T01:46:23.237Z,18.81
2019-03-18T01:47:23.204Z,18.81
2019-03-18T01:48:23.094Z,18.81
2019-03-18T01:49:23.174Z,18.8
2019-03-18T01:50:23.368Z,18.8
2019-03-18T01:51:23.257Z,18.79
2019-03-18T01:52:22.954Z,18.79
2019-03-18T01:53:22.929Z,18.79
2019-03-18T01:54:23.063Z,18.78
2019-03-18T01:55:23.108Z,18.78
2019-03-18T01:56:22.972Z,18.78
2019-03-18T01:57:23.026Z,18.78
2019-03-18T01:58:22.881Z,18.78
2019-03-18T01:59:23.092Z,18.78
2019-03-18T02:00:23.064Z,18.77
2019-03-18T02:01:23.056Z,18.77
2019-03-18T02:02:23.424Z,18.76
2019-03-18T02:03:23.123Z,18.76
2019-03-18T02:04:23.101Z,18.76
2019-03-18T02:05:23.110Z,18.76
2019-03-18T02:06:23.255Z,18.75
2019-03-18T02:07:23.258Z,18.75
2019-03-18T02:08:23.188Z,18.74
2019-03-18T02:09:23.117Z,18.74
2019-03-18T02:10:27.387Z,18.74
2019-03-18T02:11:22.959Z,18.73
2019-03-18T02:12:23.227Z,18.73
2019-03-18T02:13:23.068Z,18.73
2019-03-18T02:14:23.088Z,18.73
2019-03-18T02:15:23.057Z,18.72
2019-03-18T02:16:23.035Z,18.72
2019-03-18T02:17:22.932Z,18.72
2019-03-18T02:18:23.135Z,18.72
2019-03-18T02:19:23.071Z,18.71
2019-03-18T02:20:23.188Z,18.71
2019-03-18T02:21:23.228Z,18.71
2019-03-18T02:22:23.287Z,18.71
2019-03-18T02:23:23.234Z,18.71
2019-03-18T02:24:23.266Z,18.71
2019-03-18T02:25:23.423Z,18.7
2019-03-18T02:26:23.189Z,18.69
2019-03-18T02:27:23.186Z,18.69
2019-03-18T02:28:22.916Z,18.69
2019-03-18T02:29:23.111Z,18.68
2019-03-18T02:30:23.056Z,18.68
2019-03-18T02:31:23.020Z,18.68
2019-03-18T02:32:23.021Z,18.67
2019-03-18T02:33:23.129Z,18.67
2019-03-18T02:34:23.371Z,18.66
2019-03-18T02:35:23.260Z,18.66
2019-03-18T02:36:23.191Z,18.66
2019-03-18T02:37:22.963Z,18.66
2019-03-18T02:38:23.115Z,18.66
2019-03-18T02:39:23.109Z,18.66
2019-03-18T02:40:23.128Z,18.65
2019-03-18T02:41:23.125Z,18.66
2019-03-18T02:42:23.191Z,18.65
2019-03-18T02:43:23.155Z,18.64
2019-03-18T02:44:23.250Z,18.63
2019-03-18T02:45:25.480Z,18.63
2019-03-18T02:46:23.201Z,18.63
2019-03-18T02:47:23.054Z,18.63
2019-03-18T02:48:23.123Z,18.63
2019-03-18T02:49:22.980Z,18.62
2019-03-18T02:50:23.010Z,18.62
2019-03-18T02:51:23.031Z,18.62
2019-03-18T02:52:23.094Z,18.61
2019-03-18T02:53:22.973Z,18.61
2019-03-18T02:54:23.159Z,18.61
2019-03-18T02:55:23.033Z,18.6
2019-03-18T02:56:23.235Z,18.61
2019-03-18T02:57:23.089Z,18.61
2019-03-18T02:58:23.110Z,18.6
2019-03-18T02:59:23.153Z,18.6
2019-03-18T03:00:23.168Z,18.59
2019-03-18T03:01:23.187Z,18.59
2019-03-18T03:02:23.275Z,18.59
2019-03-18T03:03:23.345Z,18.58
2019-03-18T03:04:23.192Z,18.58
2019-03-18T03:05:22.954Z,18.57
2019-03-18T03:06:23.104Z,18.58
2019-03-18T03:07:22.943Z,18.57
2019-03-18T03:08:22.994Z,18.56
2019-03-18T03:09:22.935Z,18.56
2019-03-18T03:10:23.012Z,18.57
2019-03-18T03:11:23.017Z,18.56
2019-03-18T03:12:23.072Z,18.56
2019-03-18T03:13:22.944Z,18.55
2019-03-18T03:14:23.188Z,18.54
2019-03-18T03:15:23.242Z,18.54
2019-03-18T03:16:27.955Z,18.54
2019-03-18T03:17:22.747Z,18.54
2019-03-18T03:18:23.292Z,18.54
2019-03-18T03:19:23.106Z,18.54
2019-03-18T03:20:23.124Z,18.54
2019-03-18T03:21:23.141Z,18.54
2019-03-18T03:22:23.159Z,18.54
2019-03-18T03:23:23.137Z,18.54
2019-03-18T03:24:23.196Z,18.54
2019-03-18T03:25:25.685Z,18.53
2019-03-18T03:26:23.080Z,18.53
2019-03-18T03:27:23.180Z,18.52
2019-03-18T03:28:23.105Z,18.52
2019-03-18T03:29:23.030Z,18.52
2019-03-18T03:30:23.089Z,18.52
2019-03-18T03:31:23.254Z,18.52
2019-03-18T03:32:23.162Z,18.52
2019-03-18T03:33:24.384Z,18.51
2019-03-18T03:34:23.106Z,18.51
2019-03-18T03:35:23.143Z,18.5
2019-03-18T03:36:22.928Z,18.48
2019-03-18T03:37:23.242Z,18.49
2019-03-18T03:38:23.128Z,18.48
2019-03-18T03:39:23.160Z,18.48
2019-03-18T03:40:22.803Z,18.48
2019-03-18T03:41:23.279Z,18.48
2019-03-18T03:42:23.158Z,18.48
2019-03-18T03:43:22.889Z,18.48
2019-03-18T03:44:22.947Z,18.48
2019-03-18T03:45:22.880Z,18.47
2019-03-18T03:46:22.962Z,18.48
2019-03-18T03:47:22.957Z,18.48
2019-03-18T03:48:22.978Z,18.48
2019-03-18T03:49:23.099Z,18.47
2019-03-18T03:50:23.009Z,18.48
2019-03-18T03:51:22.920Z,18.47
2019-03-18T03:52:23.003Z,18.46
2019-03-18T03:53:23.071Z,18.46
2019-03-18T03:54:23.159Z,18.46
2019-03-18T03:55:22.899Z,18.45
2019-03-18T03:56:23.091Z,18.46
2019-03-18T03:57:22.946Z,18.45
2019-03-18T03:58:23.161Z,18.44
2019-03-18T03:59:22.904Z,18.45
2019-03-18T04:00:23.145Z,18.44
2019-03-18T04:01:23.074Z,18.43
2019-03-18T04:02:23.110Z,18.43
2019-03-18T04:03:39.305Z,18.43
2019-03-18T04:04:23.212Z,18.43
2019-03-18T04:05:23.009Z,18.43
2019-03-18T04:06:23.085Z,18.42
2019-03-18T04:07:22.945Z,18.42
2019-03-18T04:08:23.187Z,18.41
2019-03-18T04:09:23.269Z,18.41
2019-03-18T04:10:23.010Z,18.41
2019-03-18T04:11:23.059Z,18.41
2019-03-18T04:12:23.000Z,18.41
2019-03-18T04:13:23.026Z,18.4
2019-03-18T04:14:23.058Z,18.41
2019-03-18T04:15:23.155Z,18.41
2019-03-18T04:16:23.118Z,18.4
2019-03-18T04:17:22.996Z,18.4
2019-03-18T04:18:23.125Z,18.4
2019-03-18T04:19:23.232Z,18.39
2019-03-18T04:20:23.125Z,18.38
2019-03-18T04:21:22.925Z,18.38
2019-03-18T04:22:23.079Z,18.38
2019-03-18T04:23:23.189Z,18.38
2019-03-18T04:24:23.316Z,18.38
2019-03-18T04:25:23.004Z,18.37
2019-03-18T04:26:24.754Z,18.37
2019-03-18T04:27:25.544Z,18.37
2019-03-18T04:28:22.910Z,18.36
2019-03-18T04:29:23.021Z,18.36
2019-03-18T04:30:22.988Z,18.36
2019-03-18T04:31:23.001Z,18.35
2019-03-18T04:32:22.994Z,18.35
2019-03-18T04:33:23.009Z,18.35
2019-03-18T04:34:23.122Z,18.35
2019-03-18T04:35:23.026Z,18.35
2019-03-18T04:36:22.923Z,18.35
2019-03-18T04:37:23.215Z,18.35
2019-03-18T04:38:23.046Z,18.35
2019-03-18T04:39:22.922Z,18.35
2019-03-18T04:40:22.847Z,18.35
2019-03-18T04:41:23.271Z,18.35
2019-03-18T04:42:23.096Z,18.36
2019-03-18T04:43:23.092Z,18.35
2019-03-18T04:44:23.095Z,18.36
2019-03-18T04:45:22.904Z,18.37
2019-03-18T04:46:22.905Z,18.38
2019-03-18T04:47:22.786Z,18.38
2019-03-18T04:48:23.155Z,18.39
2019-03-18T04:49:24.226Z,18.39
2019-03-18T04:50:22.998Z,18.39
2019-03-18T04:51:22.838Z,18.4
2019-03-18T04:52:23.058Z,18.41
2019-03-18T04:53:22.998Z,18.42
2019-03-18T04:54:23.109Z,18.42
2019-03-18T04:55:22.882Z,18.43
2019-03-18T04:56:23.024Z,18.44
2019-03-18T04:57:23.147Z,18.45
2019-03-18T04:58:23.040Z,18.46
2019-03-18T04:59:23.046Z,18.47
2019-03-18T05:00:23.069Z,18.48
2019-03-18T05:01:22.963Z,18.48
2019-03-18T05:02:23.081Z,18.5
2019-03-18T05:03:23.156Z,18.52
2019-03-18T05:04:23.191Z,18.54
2019-03-18T05:05:22.832Z,18.55
2019-03-18T05:06:22.734Z,18.56
2019-03-18T05:07:22.873Z,18.59
2019-03-18T05:08:23.205Z,18.6
2019-03-18T05:09:22.865Z,18.62
2019-03-18T05:10:23.096Z,18.64
2019-03-18T05:11:23.669Z,18.65
2019-03-18T05:12:22.930Z,18.67
2019-03-18T05:13:22.995Z,18.69
2019-03-18T05:14:23.076Z,18.72
2019-03-18T05:15:22.980Z,18.72
2019-03-18T05:16:22.842Z,18.75
2019-03-18T05:17:27.375Z,18.77
2019-03-18T05:18:23.126Z,18.78
2019-03-18T05:19:23.039Z,18.79
2019-03-18T05:20:22.878Z,18.81
2019-03-18T05:21:23.031Z,18.83
2019-03-18T05:22:23.105Z,18.85
2019-03-18T05:23:23.111Z,18.87
2019-03-18T05:24:23.088Z,18.89
2019-03-18T05:25:23.077Z,18.91
2019-03-18T05:26:22.907Z,18.93
2019-03-18T05:27:22.911Z,18.95
2019-03-18T05:28:23.011Z,18.96
2019-03-18T05:29:22.912Z,18.97
2019-03-18T05:30:22.818Z,18.99
2019-03-18T05:31:23.041Z,19.01
2019-03-18T05:32:22.845Z,19.03
2019-03-18T05:33:23.031Z,19.03
2019-03-18T05:34:22.968Z,19.05
2019-03-18T05:35:23.047Z,19.07
2019-03-18T05:36:22.915Z,19.09
2019-03-18T05:37:23.300Z,19.09
2019-03-18T05:38:23.006Z,19.11
2019-03-18T05:39:23.136Z,19.13
2019-03-18T05:40:23.148Z,19.15
2019-03-18T05:41:23.062Z,19.16
2019-03-18T05:42:23.075Z,19.16
2019-03-18T05:43:23.163Z,19.18
2019-03-18T05:44:23.086Z,19.2
2019-03-18T05:45:23.079Z,19.22
2019-03-18T05:46:23.097Z,19.22
2019-03-18T05:47:23.232Z,19.23
2019-03-18T05:48:22.956Z,19.25
2019-03-18T05:49:22.875Z,19.27
2019-03-18T05:50:22.892Z,19.27
2019-03-18T05:51:22.911Z,19.28
2019-03-18T05:52:22.997Z,19.29
2019-03-18T05:53:22.898Z,19.32
2019-03-18T05:54:22.921Z,19.32
2019-03-18T05:55:22.988Z,19.34
2019-03-18T05:56:23.187Z,19.34
2019-03-18T05:57:26.445Z,19.36
2019-03-18T05:58:24.103Z,19.37
2019-03-18T05:59:23.012Z,19.39
2019-03-18T06:00:22.977Z,19.39
2019-03-18T06:01:22.941Z,19.39
2019-03-18T06:02:23.239Z,19.41
2019-03-18T06:03:23.149Z,19.42
2019-03-18T06:04:23.133Z,19.44
2019-03-18T06:05:22.824Z,19.44
2019-03-18T06:06:23.147Z,19.45
2019-03-18T06:07:23.109Z,19.47
2019-03-18T06:08:22.923Z,19.48
2019-03-18T06:09:26.828Z,19.5
2019-03-18T06:10:22.913Z,19.51
2019-03-18T06:11:22.906Z,19.51
2019-03-18T06:12:22.841Z,19.51
2019-03-18T06:13:23.091Z,19.53
2019-03-18T06:14:22.959Z,19.53
2019-03-18T06:15:22.991Z,19.55
2019-03-18T06:16:23.203Z,19.56
2019-03-18T06:17:23.085Z,19.57
2019-03-18T06:18:23.334Z,19.58
2019-03-18T06:19:23.144Z,19.59
2019-03-18T06:20:23.029Z,19.6
2019-03-18T06:21:23.640Z,19.61
2019-03-18T06:22:23.066Z,19.62
2019-03-18T06:23:22.831Z,19.63
2019-03-18T06:24:23.095Z,19.64
2019-03-18T06:25:23.186Z,19.64
2019-03-18T06:26:22.929Z,19.64
2019-03-18T06:27:22.924Z,19.65
2019-03-18T06:28:23.084Z,19.66
2019-03-18T06:29:22.845Z,19.67
2019-03-18T06:30:22.905Z,19.69
2019-03-18T06:31:23.103Z,19.69
2019-03-18T06:32:22.893Z,19.7
2019-03-18T06:33:22.907Z,19.7
2019-03-18T06:34:22.923Z,19.71
2019-03-18T06:35:22.925Z,19.71
2019-03-18T06:36:22.967Z,19.71
2019-03-18T06:37:22.939Z,19.71
2019-03-18T06:38:22.952Z,19.72
2019-03-18T06:39:22.970Z,19.72
2019-03-18T06:40:23.219Z,19.73
2019-03-18T06:41:22.947Z,19.73
2019-03-18T06:42:22.885Z,19.74
2019-03-18T06:43:23.089Z,19.74
2019-03-18T06:44:23.059Z,19.74
2019-03-18T06:45:23.039Z,19.75
2019-03-18T06:46:22.786Z,19.75
2019-03-18T06:47:23.137Z,19.75
2019-03-18T06:48:23.129Z,19.75
2019-03-18T06:49:22.862Z,19.75
2019-03-18T06:50:26.840Z,19.76
2019-03-18T06:51:22.926Z,19.75
2019-03-18T06:52:23.105Z,19.76
2019-03-18T06:53:22.864Z,19.76
2019-03-18T06:54:23.042Z,19.76
2019-03-18T06:55:22.881Z,19.77
2019-03-18T06:56:23.040Z,19.77
2019-03-18T06:57:23.202Z,19.77
2019-03-18T06:58:22.974Z,19.77
2019-03-18T06:59:22.989Z,19.78
2019-03-18T07:00:22.692Z,19.77
2019-03-18T07:01:23.054Z,19.77
2019-03-18T07:02:22.996Z,19.79
2019-03-18T07:03:23.022Z,19.78
2019-03-18T07:04:23.166Z,19.77
2019-03-18T07:05:23.046Z,19.77
2019-03-18T07:06:23.093Z,19.77
2019-03-18T07:07:23.146Z,19.77
2019-03-18T07:08:23.060Z,19.78
2019-03-18T07:09:23.088Z,19.78
2019-03-18T07:10:22.912Z,19.78
2019-03-18T07:11:22.842Z,19.78
2019-03-18T07:12:22.849Z,19.78
2019-03-18T07:13:22.852Z,19.79
2019-03-18T07:14:22.851Z,19.79
2019-03-18T07:15:23.079Z,19.78
2019-03-18T07:16:22.920Z,19.79
2019-03-18T07:17:22.924Z,19.79
2019-03-18T07:18:22.952Z,19.78
2019-03-18T07:19:22.930Z,19.79
2019-03-18T07:20:22.961Z,19.79
2019-03-18T07:21:22.971Z,19.79
2019-03-18T07:22:23.002Z,19.8
2019-03-18T07:23:22.963Z,19.79
2019-03-18T07:24:23.513Z,19.79
2019-03-18T07:25:23.169Z,19.8
2019-03-18T07:26:23.084Z,19.8
2019-03-18T07:27:23.040Z,19.81
2019-03-18T07:28:23.096Z,19.81
2019-03-18T07:29:22.769Z,19.8
2019-03-18T07:30:22.987Z,19.8
2019-03-18T07:31:22.919Z,19.8
2019-03-18T07:32:22.879Z,19.8
2019-03-18T07:33:22.874Z,19.8
2019-03-18T07:34:22.746Z,19.81
2019-03-18T07:35:23.007Z,19.81
2019-03-18T07:36:22.920Z,19.8
2019-03-18T07:37:22.985Z,19.81
2019-03-18T07:38:23.026Z,19.8
2019-03-18T07:39:22.956Z,19.81
2019-03-18T07:40:22.943Z,19.81
2019-03-18T07:41:22.946Z,19.81
2019-03-18T07:42:23.017Z,19.81
2019-03-18T07:43:22.987Z,19.81
2019-03-18T07:44:23.046Z,19.81
2019-03-18T07:45:23.135Z,19.81
2019-03-18T07:46:23.026Z,19.81
2019-03-18T07:47:23.740Z,19.81
2019-03-18T07:48:31.905Z,19.81
2019-03-18T07:49:23.085Z,19.81
2019-03-18T07:50:22.807Z,19.81
2019-03-18T07:51:22.782Z,19.81
2019-03-18T07:52:22.990Z,19.81
2019-03-18T07:53:22.887Z,19.81
2019-03-18T07:54:33.469Z,19.82
2019-03-18T07:55:22.829Z,19.82
2019-03-18T07:56:22.868Z,19.82
2019-03-18T07:57:22.868Z,19.83
2019-03-18T07:58:22.881Z,19.82
2019-03-18T07:59:23.025Z,19.82
2019-03-18T08:00:23.029Z,19.83
2019-03-18T08:01:23.002Z,19.83
2019-03-18T08:02:23.033Z,19.83
2019-03-18T08:03:22.981Z,19.83
2019-03-18T08:04:23.058Z,19.83
2019-03-18T08:05:23.049Z,19.84
2019-03-18T08:06:23.073Z,19.83
2019-03-18T08:07:23.136Z,19.84
2019-03-18T08:08:23.198Z,19.84
2019-03-18T08:09:23.125Z,19.84
2019-03-18T08:10:23.503Z,19.84
2019-03-18T08:11:22.921Z,19.85
2019-03-18T08:12:22.930Z,19.85
2019-03-18T08:13:22.847Z,19.85
2019-03-18T08:14:22.825Z,19.86
2019-03-18T08:15:22.884Z,19.86
2019-03-18T08:16:22.915Z,19.86
2019-03-18T08:17:22.902Z,19.86
2019-03-18T08:18:22.892Z,19.87
2019-03-18T08:19:22.982Z,19.86
2019-03-18T08:20:23.153Z,19.87
2019-03-18T08:21:23.025Z,19.88
2019-03-18T08:22:22.940Z,19.88
2019-03-18T08:23:23.096Z,19.88
2019-03-18T08:24:23.006Z,19.88
2019-03-18T08:25:23.454Z,19.88
2019-03-18T08:26:23.077Z,19.89
2019-03-18T08:27:23.077Z,19.89
2019-03-18T08:28:23.052Z,19.9
2019-03-18T08:29:23.125Z,19.9
2019-03-18T08:30:22.980Z,19.91
2019-03-18T08:31:22.767Z,19.91
2019-03-18T08:32:23.021Z,19.92
2019-03-18T08:33:23.002Z,19.92
2019-03-18T08:34:22.863Z,19.92
2019-03-18T08:35:22.839Z,19.93
2019-03-18T08:36:22.828Z,19.93
2019-03-18T08:37:22.879Z,19.94
2019-03-18T08:38:23.027Z,19.94
2019-03-18T08:39:22.888Z,19.94
2019-03-18T08:40:22.877Z,19.94
2019-03-18T08:41:22.963Z,19.94
2019-03-18T08:42:22.948Z,19.95
2019-03-18T08:43:22.955Z,19.95
2019-03-18T08:44:23.084Z,19.97
2019-03-18T08:45:23.143Z,19.97
2019-03-18T08:46:22.973Z,19.98
2019-03-18T08:47:23.184Z,19.98
2019-03-18T08:48:23.135Z,19.98
2019-03-18T08:49:23.037Z,19.98
2019-03-18T08:50:23.046Z,20
2019-03-18T08:51:22.853Z,20
2019-03-18T08:52:22.892Z,20
2019-03-18T08:53:22.851Z,20
2019-03-18T08:54:22.938Z,20.02
2019-03-18T08:55:22.882Z,20
2019-03-18T08:56:22.855Z,19.91
2019-03-18T08:57:23.023Z,19.86
2019-03-18T08:58:22.867Z,19.73
2019-03-18T08:59:22.869Z,19.64
2019-03-18T09:00:23.109Z,19.63
2019-03-18T09:01:22.918Z,19.61
2019-03-18T09:02:22.933Z,19.55
2019-03-18T09:03:23.009Z,19.51
2019-03-18T09:04:22.979Z,19.46
2019-03-18T09:05:23.103Z,19.45
2019-03-18T09:06:23.110Z,19.43
2019-03-18T09:07:23.170Z,19.44
2019-03-18T09:08:23.205Z,19.39
2019-03-18T09:09:23.184Z,19.39
2019-03-18T09:10:22.778Z,19.46
2019-03-18T09:11:22.761Z,19.51
2019-03-18T09:12:22.794Z,19.55
2019-03-18T09:13:22.859Z,19.59
2019-03-18T09:14:22.839Z,19.63
2019-03-18T09:15:22.852Z,19.67
2019-03-18T09:16:22.956Z,19.69
2019-03-18T09:17:22.858Z,19.7
2019-03-18T09:18:22.938Z,19.73
2019-03-18T09:19:22.801Z,19.75
2019-03-18T09:20:22.936Z,19.76
2019-03-18T09:21:22.922Z,19.77
2019-03-18T09:22:23.292Z,19.78
2019-03-18T09:23:23.048Z,19.8
2019-03-18T09:24:22.961Z,19.81
2019-03-18T09:25:23.010Z,19.82
2019-03-18T09:26:22.996Z,19.82
2019-03-18T09:27:23.029Z,19.83
2019-03-18T09:28:23.141Z,19.84
2019-03-18T09:29:22.748Z,19.85
2019-03-18T09:30:22.888Z,19.87
2019-03-18T09:31:23.942Z,19.86
2019-03-18T09:32:22.875Z,19.87
2019-03-18T09:33:22.809Z,19.87
2019-03-18T09:34:22.917Z,19.88
2019-03-18T09:35:22.833Z,19.88
2019-03-18T09:36:22.888Z,19.88
2019-03-18T09:37:23.001Z,19.88
2019-03-18T09:38:22.918Z,19.88
2019-03-18T09:39:22.872Z,19.88
2019-03-18T09:40:23.003Z,19.88
2019-03-18T09:41:22.956Z,19.89
2019-03-18T09:42:23.068Z,19.9
2019-03-18T09:43:22.792Z,19.9
2019-03-18T09:44:22.967Z,19.9
2019-03-18T09:45:23.013Z,19.9
2019-03-18T09:46:23.098Z,19.91
2019-03-18T09:47:23.007Z,19.91
2019-03-18T09:48:23.046Z,19.92
2019-03-18T09:49:22.785Z,19.91
2019-03-18T09:50:22.847Z,19.91
2019-03-18T09:51:22.787Z,19.92
2019-03-18T09:52:23.178Z,19.92
2019-03-18T09:53:22.790Z,19.92
2019-03-18T09:54:22.872Z,19.92
2019-03-18T09:55:22.948Z,19.91
2019-03-18T09:56:22.954Z,19.91
2019-03-18T09:57:26.977Z,19.91
2019-03-18T09:58:22.871Z,19.92
2019-03-18T09:59:22.954Z,19.9
2019-03-18T10:00:22.907Z,19.9
2019-03-18T10:01:22.897Z,19.9
2019-03-18T10:02:22.900Z,19.9
2019-03-18T10:03:22.937Z,19.89
2019-03-18T10:04:22.908Z,19.89
2019-03-18T10:05:22.946Z,19.89
2019-03-18T10:06:22.969Z,19.89
2019-03-18T10:07:23.046Z,19.87
2019-03-18T10:08:25.564Z,19.88
2019-03-18T10:09:22.807Z,19.87
2019-03-18T10:10:22.885Z,19.87
2019-03-18T10:11:22.797Z,19.87
2019-03-18T10:12:22.944Z,19.86
2019-03-18T10:13:22.914Z,19.84
2019-03-18T10:14:23.228Z,19.84
2019-03-18T10:15:23.012Z,19.86
2019-03-18T10:16:22.885Z,19.87
2019-03-18T10:17:22.952Z,19.87
2019-03-18T10:18:23.066Z,19.88
2019-03-18T10:19:34.116Z,19.86
2019-03-18T10:20:23.006Z,19.86
2019-03-18T10:21:23.361Z,19.85
2019-03-18T10:22:22.980Z,19.86
2019-03-18T10:23:23.047Z,19.86
2019-03-18T10:24:23.107Z,19.85
2019-03-18T10:25:23.024Z,19.85
2019-03-18T10:26:23.018Z,19.84
2019-03-18T10:27:22.997Z,19.84
2019-03-18T10:28:23.090Z,19.84
2019-03-18T10:29:22.732Z,19.84
2019-03-18T10:30:22.785Z,19.83
2019-03-18T10:31:22.795Z,19.83
2019-03-18T10:32:22.922Z,19.83
2019-03-18T10:33:22.975Z,19.82
2019-03-18T10:34:22.760Z,19.82
2019-03-18T10:35:22.746Z,19.82
2019-03-18T10:36:23.262Z,19.82
2019-03-18T10:37:22.884Z,19.81
2019-03-18T10:38:22.667Z,19.81
2019-03-18T10:39:22.920Z,19.81
2019-03-18T10:40:22.850Z,19.81
2019-03-18T10:41:22.813Z,19.81
2019-03-18T10:42:22.888Z,19.81
2019-03-18T10:43:22.829Z,19.8
2019-03-18T10:44:22.940Z,19.8
2019-03-18T10:45:26.609Z,19.78
2019-03-18T10:46:22.956Z,19.77
2019-03-18T10:47:22.787Z,19.78
2019-03-18T10:48:22.734Z,19.77
2019-03-18T10:49:22.741Z,19.77
2019-03-18T10:50:22.813Z,19.76
2019-03-18T10:51:22.728Z,19.76
2019-03-18T10:52:22.942Z,19.75
2019-03-18T10:53:22.829Z,19.75
2019-03-18T10:54:31.722Z,19.75
2019-03-18T10:55:22.903Z,19.75
2019-03-18T10:56:22.862Z,19.75
2019-03-18T10:57:22.929Z,19.75
2019-03-18T10:58:23.242Z,19.75
2019-03-18T10:59:22.874Z,19.74
2019-03-18T11:00:22.983Z,19.74
2019-03-18T11:01:22.938Z,19.74
2019-03-18T11:02:22.865Z,19.74
2019-03-18T11:03:23.033Z,19.73
2019-03-18T11:04:22.965Z,19.72
2019-03-18T11:05:22.911Z,19.73
2019-03-18T11:06:22.679Z,19.72
2019-03-18T11:07:22.683Z,19.71
2019-03-18T11:08:22.808Z,19.7
2019-03-18T11:09:22.810Z,19.7
2019-03-18T11:10:22.933Z,19.69
2019-03-18T11:11:22.686Z,19.7
2019-03-18T11:12:22.748Z,19.7
2019-03-18T11:13:22.711Z,19.69
2019-03-18T11:14:22.774Z,19.68
2019-03-18T11:15:23.037Z,19.69
2019-03-18T11:16:22.858Z,19.68
2019-03-18T11:17:22.733Z,19.69
2019-03-18T11:18:22.846Z,19.69
2019-03-18T11:19:22.620Z,19.7
2019-03-18T11:20:22.935Z,19.69
2019-03-18T11:21:22.890Z,19.69
2019-03-18T11:22:22.949Z,19.68
2019-03-18T11:23:22.895Z,19.67
2019-03-18T11:24:22.783Z,19.66
2019-03-18T11:25:22.796Z,19.66
2019-03-18T11:26:22.801Z,19.65
2019-03-18T11:27:22.714Z,19.64
2019-03-18T11:28:22.720Z,19.63
2019-03-18T11:29:22.734Z,19.63
2019-03-18T11:30:22.863Z,19.63
2019-03-18T11:31:22.834Z,19.63
2019-03-18T11:32:22.718Z,19.63
2019-03-18T11:33:22.829Z,19.61
2019-03-18T11:34:22.800Z,19.61
2019-03-18T11:35:22.809Z,19.61
2019-03-18T11:36:22.852Z,19.61
2019-03-18T11:37:22.868Z,19.6
2019-03-18T11:38:22.857Z,19.6
2019-03-18T11:39:22.892Z,19.59
2019-03-18T11:40:22.885Z,19.58
2019-03-18T11:41:22.918Z,19.58
2019-03-18T11:42:22.621Z,19.57
2019-03-18T11:43:22.789Z,19.57
2019-03-18T11:44:22.657Z,19.57
2019-03-18T11:45:22.977Z,19.56
2019-03-18T11:46:22.675Z,19.56
2019-03-18T11:47:22.771Z,19.56
2019-03-18T11:48:22.757Z,19.56
2019-03-18T11:49:22.840Z,19.54
2019-03-18T11:50:22.835Z,19.55
2019-03-18T11:51:22.773Z,19.54
2019-03-18T11:52:22.839Z,19.54
2019-03-18T11:53:22.918Z,19.55
2019-03-18T11:54:23.844Z,19.55
2019-03-18T11:55:22.818Z,19.54
2019-03-18T11:56:22.933Z,19.55
2019-03-18T11:57:23.032Z,19.54
2019-03-18T11:58:22.903Z,19.53
2019-03-18T11:59:22.964Z,19.54
2019-03-18T12:00:22.898Z,19.54
2019-03-18T12:01:22.734Z,19.53
2019-03-18T12:02:28.334Z,19.53
2019-03-18T12:03:22.739Z,19.53
2019-03-18T12:04:23.379Z,19.52
2019-03-18T12:05:23.109Z,19.51
2019-03-18T12:06:23.162Z,19.5
2019-03-18T12:07:22.710Z,19.49
2019-03-18T12:08:22.666Z,19.48
2019-03-18T12:09:22.760Z,19.47
2019-03-18T12:10:26.471Z,19.45
2019-03-18T12:11:22.925Z,19.45
2019-03-18T12:12:22.893Z,19.44
2019-03-18T12:13:22.979Z,19.43
2019-03-18T12:14:23.023Z,19.42
2019-03-18T12:15:22.950Z,19.45
2019-03-18T12:16:22.906Z,19.45
2019-03-18T12:17:22.630Z,19.44
2019-03-18T12:18:22.697Z,19.45
2019-03-18T12:19:23.523Z,19.45
2019-03-18T12:20:26.301Z,19.44
2019-03-18T12:21:22.687Z,19.45
2019-03-18T12:22:22.654Z,19.45
2019-03-18T12:23:22.695Z,19.45
2019-03-18T12:24:22.728Z,19.46
2019-03-18T12:25:22.761Z,19.45
2019-03-18T12:26:22.851Z,19.45
2019-03-18T12:27:22.750Z,19.45
2019-03-18T12:28:22.839Z,19.45
2019-03-18T12:29:23.019Z,19.45
2019-03-18T12:30:22.863Z,19.47
2019-03-18T12:31:22.812Z,19.48
2019-03-18T12:32:24.025Z,19.49
2019-03-18T12:33:22.959Z,19.5
2019-03-18T12:34:23.031Z,19.51
2019-03-18T12:35:22.641Z,19.53
2019-03-18T12:36:22.665Z,19.54
2019-03-18T12:37:22.767Z,19.55
2019-03-18T12:38:22.692Z,19.56
2019-03-18T12:39:25.150Z,19.57
2019-03-18T12:40:22.761Z,19.58
2019-03-18T12:41:22.953Z,19.59
2019-03-18T12:42:22.828Z,19.6
2019-03-18T12:43:22.737Z,19.6
2019-03-18T12:44:22.879Z,19.61
2019-03-18T12:45:23.071Z,19.63
2019-03-18T12:46:22.832Z,19.63
2019-03-18T12:47:22.882Z,19.64
2019-03-18T12:48:23.314Z,19.65
2019-03-18T12:49:23.805Z,19.66
2019-03-18T12:51:22.875Z,19.68
2019-03-18T12:52:22.925Z,19.69
2019-03-18T12:53:22.842Z,19.69
2019-03-18T12:54:22.608Z,19.69
2019-03-18T12:55:22.585Z,19.7
2019-03-18T12:56:22.721Z,19.72